Time;durP1;ratioP1;P1;durP2;ratioP2;P2;SDS_P1;SDS_P2;PMS_P1;PMS_P2;Temp;Humidity;BMP_temperature;BMP_pressure;BME280_temperature;BME280_humidity;BME280_pressure;Samples;Min_cycle;Max_cycle;Signal;HPM_P1;HPM_P2
2022/09/06 00:01:13;;;;;;;7.43;3.70;;;;;;;19.17;79.54;101492.03;5074929;28;20027;-49
2022/09/06 00:03:38;;;;;;;6.50;4.10;;;;;;;19.14;81.80;101554.28;5082707;28;20277;-49
2022/09/06 00:06:14;;;;;;;7.68;4.30;;;;;;;19.06;80.36;101555.03;5073339;28;20025;-49
2022/09/06 00:08:40;;;;;;;7.35;3.95;;;;;;;18.94;79.91;101550.94;5073637;28;20039;-48
2022/09/06 00:11:07;;;;;;;6.82;4.00;;;;;;;18.94;80.54;101577.84;5074788;28;20029;-49
2022/09/06 00:13:32;;;;;;;6.85;4.18;;;;;;;18.95;80.48;101591.16;5064708;28;20025;-48
2022/09/06 00:16:06;;;;;;;6.97;4.78;;;;;;;18.94;80.72;101604.75;5074291;28;20028;-51
2022/09/06 00:18:31;;;;;;;6.75;4.50;;;;;;;18.95;80.33;101612.69;5071011;28;20021;-47
2022/09/06 00:20:56;;;;;;;7.70;4.50;;;;;;;18.90;79.66;101623.06;5074699;28;20075;-50
2022/09/06 00:23:22;;;;;;;4.67;4.27;;;;;;;18.86;80.64;101629.75;5069985;28;20024;-52
2022/09/06 00:25:47;;;;;;;5.13;4.22;;;;;;;18.85;80.84;101626.22;5074519;28;20308;-50
2022/09/06 00:28:12;;;;;;;5.17;4.67;;;;;;;18.88;81.67;101621.50;5074052;28;20403;-51
2022/09/06 00:30:38;;;;;;;5.30;4.57;;;;;;;18.84;82.03;101634.44;5069484;28;20291;-50
2022/09/06 00:33:03;;;;;;;5.90;4.53;;;;;;;18.85;82.05;101630.72;5073945;28;20020;-52
2022/09/06 00:35:28;;;;;;;6.47;4.60;;;;;;;18.82;81.26;101621.09;5074164;28;20089;-49
2022/09/06 00:37:59;;;;;;;4.35;3.95;;;;;;;18.82;81.21;101618.41;5071395;28;20448;-51
2022/09/06 00:40:25;;;;;;;6.88;4.82;;;;;;;18.84;81.46;101616.44;5067774;28;20033;-49
2022/09/06 00:42:51;;;;;;;7.13;4.43;;;;;;;18.89;81.30;101610.59;5061282;28;20086;-52
2022/09/06 00:45:17;;;;;;;7.15;4.80;;;;;;;18.87;82.16;101599.16;5074024;28;20029;-49
2022/09/06 00:47:43;;;;;;;7.25;4.55;;;;;;;18.84;81.70;101594.91;5061824;28;20505;-48
2022/09/06 00:50:12;;;;;;;5.40;4.85;;;;;;;18.83;81.17;101592.38;5069887;28;20112;-50
2022/09/06 00:52:39;;;;;;;9.15;4.60;;;;;;;18.89;81.48;101593.63;5122028;22;20072;-46
2022/09/06 00:55:05;;;;;;;6.60;4.63;;;;;;;18.89;82.32;101589.06;5031886;28;20029;-47
2022/09/06 00:57:31;;;;;;;10.45;5.40;;;;;;;18.89;82.43;101581.00;5025824;28;20037;-47
2022/09/06 00:59:58;;;;;;;5.25;4.75;;;;;;;18.93;81.09;101576.13;5030367;28;20132;-46
2022/09/06 01:02:23;;;;;;;7.00;4.63;;;;;;;18.94;81.77;101570.59;5033861;28;20030;-47
2022/09/06 01:04:50;;;;;;;7.05;4.85;;;;;;;18.96;82.83;101555.13;5033682;28;20025;-48
2022/09/06 01:07:41;;;;;;;5.65;4.65;;;;;;;19.00;82.90;101563.75;5031230;28;20021;-49
2022/09/06 01:10:36;;;;;;;5.15;4.60;;;;;;;19.01;84.10;101566.28;5033580;28;20120;-48
2022/09/06 01:13:38;;;;;;;6.43;5.05;;;;;;;18.99;84.17;101556.69;5030758;28;20037;-49
2022/09/06 01:16:25;;;;;;;5.43;4.93;;;;;;;18.96;83.52;101543.53;5033629;28;20057;-50
2022/09/06 01:19:18;;;;;;;5.97;5.38;;;;;;;18.99;82.42;101537.84;5033490;28;20033;-47
2022/09/06 01:21:54;;;;;;;5.38;4.88;;;;;;;18.93;82.74;101514.22;5027447;28;20033;-48
2022/09/06 01:24:52;;;;;;;7.65;5.35;;;;;;;18.88;81.59;101477.00;5027206;28;20112;-47
2022/09/06 01:27:51;;;;;;;6.03;5.50;;;;;;;18.80;83.11;101456.25;5032558;28;20032;-47
2022/09/06 01:30:18;;;;;;;7.47;5.30;;;;;;;18.68;84.36;101438.63;5033271;28;20040;-48
2022/09/06 01:33:08;;;;;;;7.03;5.53;;;;;;;18.72;82.87;101437.34;5026371;28;20037;-47
2022/09/06 01:35:49;;;;;;;6.95;4.75;;;;;;;18.69;83.76;101426.88;5033312;28;20075;-47
2022/09/06 01:38:15;;;;;;;5.00;4.57;;;;;;;18.61;83.73;101421.44;5033009;28;20022;-47
2022/09/06 01:40:40;;;;;;;5.15;4.60;;;;;;;18.56;83.78;101403.06;5016918;28;20018;-47
2022/09/06 01:43:10;;;;;;;6.65;5.40;;;;;;;18.50;84.40;101395.63;5026168;28;20030;-47
2022/09/06 01:45:57;;;;;;;5.57;5.05;;;;;;;18.48;84.68;101394.94;5033170;28;20029;-47
2022/09/06 01:48:40;;;;;;;7.35;4.82;;;;;;;18.44;84.06;101361.28;5032900;28;20029;-47
2022/09/06 01:51:18;;;;;;;7.00;5.30;;;;;;;18.35;84.03;101368.44;5033047;28;20032;-47
2022/09/06 01:53:55;;;;;;;8.05;4.85;;;;;;;18.31;84.89;101362.53;5023484;28;20042;-48
2022/09/06 01:56:35;;;;;;;5.40;4.55;;;;;;;18.29;84.89;101361.84;5022680;28;20486;-47
2022/09/06 01:59:26;;;;;;;5.65;4.97;;;;;;;18.30;83.68;101379.69;5005471;28;20045;-46
2022/09/06 02:02:06;;;;;;;8.00;5.30;;;;;;;18.27;85.13;101395.28;5017832;28;20553;-47
2022/09/06 02:04:44;;;;;;;6.60;5.10;;;;;;;18.26;86.38;101434.75;5017873;28;20045;-46
2022/09/06 02:07:22;;;;;;;6.72;6.00;;;;;;;18.30;85.68;101428.09;5032303;28;20039;-47
2022/09/06 02:09:54;;;;;;;6.90;5.13;;;;;;;18.28;85.96;101411.22;5031411;28;20029;-47
2022/09/06 02:12:21;;;;;;;7.80;4.80;;;;;;;18.27;86.28;101417.63;5012830;28;20034;-47
2022/09/06 02:14:57;;;;;;;5.72;5.05;;;;;;;18.36;86.18;101415.03;5032201;28;20080;-47
2022/09/06 02:17:29;;;;;;;7.18;5.03;;;;;;;18.37;86.38;101398.72;5031752;28;20025;-47
2022/09/06 02:20:01;;;;;;;5.20;4.80;;;;;;;18.41;85.16;101410.84;5013439;28;20060;-47
2022/09/06 02:22:31;;;;;;;7.82;5.07;;;;;;;18.42;85.15;101417.09;5021942;28;20068;-47
2022/09/06 02:24:59;;;;;;;5.50;5.03;;;;;;;18.44;86.37;101415.94;5031934;28;20032;-47
2022/09/06 02:27:26;;;;;;;8.23;5.25;;;;;;;18.45;86.47;101403.31;5031020;28;20033;-47
2022/09/06 02:29:51;;;;;;;7.15;5.13;;;;;;;18.43;86.03;101418.78;5030909;28;20063;-47
2022/09/06 02:32:22;;;;;;;5.47;4.97;;;;;;;18.42;85.82;101412.56;5015987;28;20029;-47
2022/09/06 02:34:49;;;;;;;6.50;5.03;;;;;;;18.41;84.80;101410.84;5032318;28;20025;-48
2022/09/06 02:37:16;;;;;;;7.13;5.38;;;;;;;18.41;85.45;101392.03;5031891;28;20025;-48
2022/09/06 02:39:42;;;;;;;6.20;5.03;;;;;;;18.38;85.21;101391.50;5012471;28;20503;-47
2022/09/06 02:42:10;;;;;;;5.60;5.00;;;;;;;18.35;85.22;101389.94;5028747;28;20022;-47
2022/09/06 02:44:35;;;;;;;6.38;5.20;;;;;;;18.35;84.57;101394.50;5021834;28;20038;-48
2022/09/06 02:47:02;;;;;;;5.78;5.10;;;;;;;18.27;85.38;101393.44;5032266;28;20057;-47
2022/09/06 02:49:28;;;;;;;5.50;5.00;;;;;;;18.27;84.55;101401.50;5022082;28;20494;-49
2022/09/06 02:51:53;;;;;;;5.95;5.45;;;;;;;18.25;84.86;101405.31;5019763;28;20046;-50
2022/09/06 02:54:18;;;;;;;6.27;5.67;;;;;;;18.22;85.70;101403.81;5026466;28;20083;-47
2022/09/06 02:56:44;;;;;;;6.57;5.90;;;;;;;18.20;84.95;101410.31;5020018;28;20775;-47
2022/09/06 02:59:09;;;;;;;7.97;5.87;;;;;;;18.18;85.57;101401.56;5017913;28;20272;-48
2022/09/06 03:01:34;;;;;;;9.07;5.53;;;;;;;18.20;86.41;101408.50;5019563;28;20303;-47
2022/09/06 03:04:00;;;;;;;6.00;5.30;;;;;;;18.19;86.26;101411.34;5016946;28;20277;-48
2022/09/06 03:06:26;;;;;;;7.13;5.85;;;;;;;18.19;86.29;101414.88;5004358;28;20086;-47
2022/09/06 03:08:51;;;;;;;7.82;5.28;;;;;;;18.19;86.87;101414.88;5012641;28;20041;-47
2022/09/06 03:11:16;;;;;;;6.15;5.25;;;;;;;18.20;86.26;101404.94;5006208;28;20018;-48
2022/09/06 03:13:41;;;;;;;6.45;5.82;;;;;;;18.22;86.34;101406.50;5008131;28;20058;-47
2022/09/06 03:16:07;;;;;;;7.47;5.60;;;;;;;18.23;85.67;101407.34;5021047;28;20021;-47
2022/09/06 03:18:33;;;;;;;6.20;5.60;;;;;;;18.19;85.80;101403.28;5024352;28;20359;-48
2022/09/06 03:20:58;;;;;;;7.07;5.43;;;;;;;18.18;87.31;101413.16;5010419;28;20113;-47
2022/09/06 03:23:26;;;;;;;6.32;5.38;;;;;;;18.15;87.31;101416.16;5012444;28;20034;-47
2022/09/06 03:25:52;;;;;;;6.75;5.65;;;;;;;18.14;85.66;101413.66;5004014;28;20811;-47
2022/09/06 03:28:18;;;;;;;6.57;5.28;;;;;;;18.12;85.63;101411.94;5012639;28;20022;-47
2022/09/06 03:30:44;;;;;;;7.55;5.90;;;;;;;18.08;87.01;101415.09;5012914;28;20029;-48
2022/09/06 03:33:10;;;;;;;6.30;5.30;;;;;;;18.13;86.09;101410.09;5006915;28;20040;-47
2022/09/06 03:35:35;;;;;;;5.75;5.20;;;;;;;18.10;86.59;101416.63;5007715;28;20117;-47
2022/09/06 03:38:01;;;;;;;6.38;5.68;;;;;;;18.05;86.98;101404.63;5012434;28;20472;-47
2022/09/06 03:40:26;;;;;;;6.80;5.40;;;;;;;18.03;86.76;101401.25;5007362;28;20027;-48
2022/09/06 03:42:51;;;;;;;6.40;5.60;;;;;;;18.02;86.86;101399.56;5015271;28;20525;-48
2022/09/06 03:45:17;;;;;;;6.53;5.93;;;;;;;18.01;87.00;101406.78;5010992;28;20384;-51
2022/09/06 03:47:42;;;;;;;7.13;5.30;;;;;;;17.99;86.69;101410.66;5023238;28;20288;-49
2022/09/06 03:50:07;;;;;;;6.60;5.75;;;;;;;17.97;87.73;101410.78;5018043;28;20019;-47
2022/09/06 03:52:33;;;;;;;6.10;5.43;;;;;;;17.96;86.02;101402.88;5033984;28;20081;-47
2022/09/06 03:54:58;;;;;;;6.85;5.90;;;;;;;17.90;86.32;101407.88;5021489;28;20037;-48
2022/09/06 03:57:23;;;;;;;6.50;5.50;;;;;;;17.86;85.73;101417.19;5011004;28;20041;-50
2022/09/06 03:59:49;;;;;;;8.05;5.90;;;;;;;17.86;86.58;101414.50;5021659;28;20276;-47
2022/09/06 04:02:14;;;;;;;7.00;5.77;;;;;;;17.84;85.64;101418.34;5010872;28;20021;-48
2022/09/06 04:04:39;;;;;;;7.53;5.70;;;;;;;17.81;86.33;101422.16;5034272;28;20280;-46
2022/09/06 04:07:04;;;;;;;7.25;5.85;;;;;;;17.78;85.74;101427.00;5011550;28;20120;-47
2022/09/06 04:09:30;;;;;;;6.40;5.35;;;;;;;17.78;86.01;101427.00;5033746;28;20021;-47
2022/09/06 04:11:55;;;;;;;8.27;6.05;;;;;;;17.71;86.62;101432.97;5033008;28;20026;-47
2022/09/06 04:14:20;;;;;;;6.43;5.75;;;;;;;17.73;86.29;101433.66;5019827;28;20399;-50
2022/09/06 04:16:46;;;;;;;9.30;6.20;;;;;;;17.69;86.85;101439.50;5032297;28;20026;-47
2022/09/06 04:19:11;;;;;;;6.37;5.83;;;;;;;17.68;87.15;101437.78;5026103;28;20300;-47
2022/09/06 04:21:37;;;;;;;9.80;6.53;;;;;;;17.66;86.71;101439.78;5027489;28;20280;-47
2022/09/06 04:24:03;;;;;;;7.00;6.22;;;;;;;17.62;86.08;101441.06;5026770;28;20413;-47
2022/09/06 04:26:28;;;;;;;6.63;5.97;;;;;;;17.62;86.28;101435.69;5011409;28;20030;-46
2022/09/06 04:28:53;;;;;;;7.88;6.63;;;;;;;17.57;86.54;101438.84;5016160;28;20034;-47
2022/09/06 04:31:18;;;;;;;7.07;6.38;;;;;;;17.53;85.14;101446.34;5033201;28;20041;-49
2022/09/06 04:33:44;;;;;;;7.47;6.37;;;;;;;17.48;86.38;101440.56;5016336;28;20030;-47
2022/09/06 04:36:10;;;;;;;7.90;6.38;;;;;;;17.50;86.61;101446.66;5032056;28;20335;-49
2022/09/06 04:38:38;;;;;;;7.07;6.38;;;;;;;17.44;85.93;101444.56;5034256;28;20160;-48
2022/09/06 04:41:04;;;;;;;7.95;6.13;;;;;;;17.46;85.80;101447.94;5024903;28;20030;-47
2022/09/06 04:43:30;;;;;;;7.32;6.35;;;;;;;17.42;86.79;101443.88;5007639;28;20083;-48
2022/09/06 04:46:01;;;;;;;8.18;6.68;;;;;;;17.35;86.43;101440.06;5014620;28;20480;-48
2022/09/06 04:48:27;;;;;;;11.20;6.90;;;;;;;17.34;86.65;101449.13;5004823;28;20038;-48
2022/09/06 04:50:52;;;;;;;6.80;6.20;;;;;;;17.32;86.33;101448.41;5014311;28;20022;-47
2022/09/06 04:53:17;;;;;;;7.95;6.78;;;;;;;17.26;86.15;101440.97;5026231;28;20337;-48
2022/09/06 04:55:42;;;;;;;10.40;6.53;;;;;;;17.25;86.29;101440.09;5027422;28;20064;-47
2022/09/06 04:58:08;;;;;;;7.80;6.83;;;;;;;17.16;87.22;101449.88;5006660;28;20085;-47
2022/09/06 05:00:34;;;;;;;7.50;6.83;;;;;;;17.16;87.50;101447.19;5014309;28;20291;-47
2022/09/06 05:02:59;;;;;;;8.23;6.80;;;;;;;17.16;87.25;101449.03;5014457;28;20689;-48
2022/09/06 05:05:25;;;;;;;8.98;7.07;;;;;;;17.07;87.12;101447.22;5014100;28;20026;-47
2022/09/06 05:07:54;;;;;;;8.47;7.00;;;;;;;17.06;88.02;101438.31;5008976;28;20395;-47
2022/09/06 05:10:20;;;;;;;10.77;6.82;;;;;;;17.04;86.96;101431.41;5019848;28;20268;-47
2022/09/06 05:12:50;;;;;;;9.35;7.43;;;;;;;17.01;87.51;101427.19;5021173;28;20107;-47
2022/09/06 05:15:21;;;;;;;8.18;7.28;;;;;;;16.98;88.08;101430.16;5007815;28;20032;-48
2022/09/06 05:17:46;;;;;;;7.63;6.88;;;;;;;16.94;87.09;101429.59;5020410;28;20033;-47
2022/09/06 05:20:12;;;;;;;8.70;7.53;;;;;;;16.97;87.56;101429.31;5021814;28;20033;-48
2022/09/06 05:22:38;;;;;;;8.57;7.40;;;;;;;16.93;87.71;101432.44;5032357;28;20063;-47
2022/09/06 05:25:03;;;;;;;9.10;8.20;;;;;;;16.93;87.94;101435.94;5025984;28;20499;-47
2022/09/06 05:27:29;;;;;;;7.93;7.20;;;;;;;16.95;87.96;101442.03;5022258;28;20050;-47
2022/09/06 05:29:54;;;;;;;8.77;7.88;;;;;;;16.93;87.48;101438.63;5033017;28;20030;-48
2022/09/06 05:32:19;;;;;;;9.20;7.47;;;;;;;16.96;87.11;101442.88;5016103;28;20030;-50
2022/09/06 05:34:45;;;;;;;9.57;8.35;;;;;;;16.86;89.06;101445.56;5033144;28;20882;-48
2022/09/06 05:37:10;;;;;;;8.97;8.07;;;;;;;16.89;89.15;101442.63;5031923;28;20045;-48
2022/09/06 05:39:35;;;;;;;9.30;7.40;;;;;;;16.94;88.60;101447.56;5032620;28;20290;-47
2022/09/06 05:42:05;;;;;;;9.20;8.27;;;;;;;16.91;88.62;101445.16;5028790;28;20643;-48
2022/09/06 05:44:31;;;;;;;9.52;7.90;;;;;;;16.93;88.45;101445.84;5032486;28;20060;-47
2022/09/06 05:46:56;;;;;;;9.43;8.52;;;;;;;16.94;88.89;101448.38;5019922;28;20058;-48
2022/09/06 05:49:21;;;;;;;9.77;8.57;;;;;;;16.94;89.21;101453.75;5019572;28;20025;-49
2022/09/06 05:51:50;;;;;;;8.90;8.10;;;;;;;16.91;89.44;101446.00;5029996;28;20049;-47
2022/09/06 05:54:15;;;;;;;9.43;8.40;;;;;;;16.95;88.98;101446.53;5004907;28;20642;-47
2022/09/06 05:56:41;;;;;;;9.13;8.00;;;;;;;16.97;88.79;101447.25;5011033;28;20028;-47
2022/09/06 05:59:06;;;;;;;10.20;7.80;;;;;;;16.98;88.64;101446.25;5012689;28;20328;-47
2022/09/06 06:01:32;;;;;;;8.73;7.90;;;;;;;16.99;88.92;101448.78;5007700;28;20285;-47
2022/09/06 06:04:00;;;;;;;8.65;7.47;;;;;;;17.00;88.81;101450.50;5022553;28;20041;-46
2022/09/06 06:06:28;;;;;;;11.25;7.80;;;;;;;17.02;89.36;101448.50;5022195;28;20504;-47
2022/09/06 06:08:54;;;;;;;9.18;8.23;;;;;;;17.02;88.94;101453.88;5017510;28;20035;-45
2022/09/06 06:11:19;;;;;;;8.13;7.00;;;;;;;17.04;88.64;101445.69;5014101;28;20383;-46
2022/09/06 06:13:45;;;;;;;13.38;7.20;;;;;;;17.08;88.35;101444.38;5014066;28;20026;-47
2022/09/06 06:16:18;;;;;;;10.38;8.27;;;;;;;17.11;90.03;101446.78;5030704;28;20033;-45
2022/09/06 06:18:44;;;;;;;11.95;7.78;;;;;;;17.15;89.11;101450.88;5018070;28;20034;-45
2022/09/06 06:21:13;;;;;;;10.32;8.05;;;;;;;17.19;89.00;101448.75;5014517;28;20029;-45
2022/09/06 06:23:40;;;;;;;8.50;7.70;;;;;;;17.21;88.78;101452.13;4998021;28;20038;-46
2022/09/06 06:26:06;;;;;;;9.32;7.32;;;;;;;17.24;88.98;101451.00;4997636;28;20844;-46
2022/09/06 06:28:34;;;;;;;7.90;7.10;;;;;;;17.26;88.69;101443.66;4997665;28;20032;-46
2022/09/06 06:30:59;;;;;;;11.50;7.50;;;;;;;17.31;88.07;101441.38;4996088;28;20030;-46
2022/09/06 06:33:24;;;;;;;9.10;7.37;;;;;;;17.36;88.83;101434.53;4997152;28;20182;-45
2022/09/06 06:36:03;;;;;;;8.70;7.07;;;;;;;17.41;87.90;101434.13;4996025;28;20759;-46
2022/09/06 06:38:37;;;;;;;10.85;7.03;;;;;;;17.45;87.78;101432.81;4996977;28;20517;-45
2022/09/06 06:41:04;;;;;;;11.20;6.90;;;;;;;17.50;88.31;101437.75;4998164;28;20467;-45
2022/09/06 06:43:35;;;;;;;7.85;6.80;;;;;;;17.53;88.54;101434.75;5004010;28;20026;-46
2022/09/06 06:46:02;;;;;;;9.73;6.93;;;;;;;17.57;87.73;101434.31;5008356;28;20471;-46
2022/09/06 06:48:27;;;;;;;10.70;7.05;;;;;;;17.63;88.50;101427.50;4996510;28;20468;-46
2022/09/06 06:50:52;;;;;;;9.50;6.85;;;;;;;17.69;88.02;101436.81;4997969;28;20029;-46
2022/09/06 06:53:18;;;;;;;8.87;6.73;;;;;;;17.75;88.42;101436.19;5001807;28;20037;-45
2022/09/06 06:55:47;;;;;;;11.65;6.63;;;;;;;17.83;88.62;101435.44;5007429;28;20351;-45
2022/09/06 06:58:16;;;;;;;7.47;6.43;;;;;;;17.89;87.79;101437.56;5011087;28;20032;-45
2022/09/06 07:00:42;;;;;;;10.50;6.38;;;;;;;17.97;87.44;101429.59;5004759;28;20488;-45
2022/09/06 07:03:09;;;;;;;7.72;6.00;;;;;;;18.07;87.38;101434.91;5018160;28;20365;-45
2022/09/06 07:05:34;;;;;;;6.72;5.45;;;;;;;18.15;86.86;101426.06;4996955;28;20079;-46
2022/09/06 07:08:00;;;;;;;10.80;5.75;;;;;;;18.26;86.55;101424.00;4993427;28;20392;-46
2022/09/06 07:10:25;;;;;;;8.30;5.50;;;;;;;18.43;85.47;101426.84;5000316;28;20028;-46
2022/09/06 07:12:51;;;;;;;6.28;5.20;;;;;;;18.52;84.07;101419.66;4997329;28;20492;-45
2022/09/06 07:15:17;;;;;;;7.95;5.10;;;;;;;18.70;83.15;101419.66;4997319;28;20027;-45
2022/09/06 07:17:42;;;;;;;6.10;4.65;;;;;;;18.87;82.47;101421.50;4998174;28;20419;-46
2022/09/06 07:20:09;;;;;;;9.32;5.15;;;;;;;19.13;81.61;101424.16;5002595;28;20113;-46
2022/09/06 07:22:34;;;;;;;6.03;4.68;;;;;;;19.35;81.25;101428.16;5012993;28;20119;-47
2022/09/06 07:24:59;;;;;;;8.52;4.43;;;;;;;19.54;79.58;101432.44;5013968;28;20467;-45
2022/09/06 07:27:25;;;;;;;7.67;4.27;;;;;;;19.78;78.57;101430.88;5016854;28;20037;-46
2022/09/06 07:29:50;;;;;;;6.00;4.47;;;;;;;20.02;77.75;101426.56;5011917;28;20300;-45
2022/09/06 07:32:15;;;;;;;9.10;4.27;;;;;;;20.23;76.56;101420.69;5020129;28;20367;-45
2022/09/06 07:34:40;;;;;;;7.22;3.83;;;;;;;20.42;75.18;101417.69;5017562;28;20350;-48
2022/09/06 07:37:06;;;;;;;5.13;3.50;;;;;;;20.66;74.12;101421.41;5022552;28;20068;-48
2022/09/06 07:39:35;;;;;;;9.80;3.70;;;;;;;20.87;72.06;101429.81;5017680;28;20351;-48
2022/09/06 07:42:01;;;;;;;7.00;3.42;;;;;;;20.99;72.05;101434.88;5021002;28;20479;-48
2022/09/06 07:44:27;;;;;;;4.53;2.85;;;;;;;21.25;71.36;101437.34;5012933;28;20204;-50
2022/09/06 07:46:54;;;;;;;5.22;3.17;;;;;;;21.45;70.29;101435.09;4999794;28;20041;-48
2022/09/06 07:49:19;;;;;;;7.30;3.47;;;;;;;21.57;70.01;101439.09;5027358;28;20129;-48
2022/09/06 07:51:46;;;;;;;5.10;3.10;;;;;;;21.80;69.67;101431.06;5024864;28;20037;-48
2022/09/06 07:54:12;;;;;;;5.18;2.60;;;;;;;22.08;69.79;101427.84;5029353;28;20034;-50
2022/09/06 07:56:37;;;;;;;6.10;2.90;;;;;;;22.30;68.49;101422.63;5021902;28;20036;-48
2022/09/06 07:59:02;;;;;;;5.63;2.50;;;;;;;22.63;66.09;101416.94;5034188;28;20022;-49
2022/09/06 08:01:33;;;;;;;4.47;2.60;;;;;;;22.82;66.17;101408.31;5032119;28;20311;-49
2022/09/06 08:04:01;;;;;;;7.38;2.85;;;;;;;23.00;64.40;101407.97;5002250;28;20023;-49
2022/09/06 08:06:28;;;;;;;3.13;2.78;;;;;;;23.23;63.84;101404.34;5023141;28;20430;-48
2022/09/06 08:08:55;;;;;;;6.43;2.53;;;;;;;23.28;61.64;101410.91;5033560;28;20060;-48
2022/09/06 08:11:21;;;;;;;3.78;2.38;;;;;;;23.30;62.24;101416.13;5031620;28;20052;-47
2022/09/06 08:13:53;;;;;;;4.57;2.40;;;;;;;23.31;63.53;101406.94;5032845;28;20597;-48
2022/09/06 08:16:19;;;;;;;4.35;2.00;;;;;;;23.35;63.39;101410.13;5032818;28;20097;-48
2022/09/06 08:18:44;;;;;;;2.85;2.30;;;;;;;23.33;61.44;101414.91;5022671;28;20472;-48
2022/09/06 08:21:14;;;;;;;4.85;2.17;;;;;;;23.40;63.87;101421.25;5025815;28;20117;-48
2022/09/06 08:23:44;;;;;;;3.90;2.30;;;;;;;23.42;63.11;101416.50;5032977;28;20387;-48
2022/09/06 08:26:10;;;;;;;4.63;2.10;;;;;;;23.45;61.97;101416.94;5031861;28;20045;-48
2022/09/06 08:28:36;;;;;;;4.28;1.80;;;;;;;23.52;61.82;101422.47;5019323;28;20060;-48
2022/09/06 08:31:13;;;;;;;6.20;2.42;;;;;;;23.55;60.88;101429.34;5016566;28;20033;-48
2022/09/06 08:33:39;;;;;;;4.95;2.20;;;;;;;23.77;61.23;101431.09;5018045;28;20124;-46
2022/09/06 08:36:05;;;;;;;6.50;2.05;;;;;;;24.00;59.09;101422.00;5032163;28;20524;-43
2022/09/06 08:38:31;;;;;;;2.80;1.80;;;;;;;24.16;60.66;101415.47;5023040;28;20030;-43
2022/09/06 08:41:24;;;;;;;4.03;2.15;;;;;;;24.44;61.19;101420.97;5032664;28;20048;-44
2022/09/06 08:43:59;;;;;;;2.50;2.28;;;;;;;24.60;58.21;101424.44;5033980;28;20069;-42
2022/09/06 08:46:51;;;;;;;3.42;2.22;;;;;;;24.91;60.06;101416.78;5024084;28;20563;-45
2022/09/06 08:49:17;;;;;;;3.53;2.00;;;;;;;25.19;57.53;101415.06;5006009;28;20503;-45
2022/09/06 08:51:48;;;;;;;3.38;2.33;;;;;;;25.36;56.14;101416.41;5039791;28;20052;-47
2022/09/06 08:54:33;;;;;;;4.03;2.33;;;;;;;25.53;56.56;101411.50;5036471;28;20010;-44
2022/09/06 08:57:08;;;;;;;4.05;2.20;;;;;;;25.78;55.29;101421.81;5041732;28;20081;-49
2022/09/06 08:59:37;;;;;;;4.53;2.40;;;;;;;25.93;54.56;101413.47;5008333;28;20040;-45
2022/09/06 09:02:13;;;;;;;2.38;2.10;;;;;;;26.12;53.54;101409.16;5014499;28;20025;-44
2022/09/06 09:04:44;;;;;;;4.00;2.13;;;;;;;26.28;53.17;101413.38;5015206;28;20022;-47
2022/09/06 09:07:22;;;;;;;5.18;2.20;;;;;;;26.45;52.24;101419.25;5014255;28;20030;-45
2022/09/06 09:09:49;;;;;;;3.65;2.10;;;;;;;26.57;50.62;101412.13;5007089;28;20507;-44
2022/09/06 09:12:20;;;;;;;5.15;2.03;;;;;;;26.70;51.17;101403.16;5004668;28;20044;-44
2022/09/06 09:14:49;;;;;;;2.35;1.88;;;;;;;26.98;50.21;101407.47;5028675;28;20029;-44
2022/09/06 09:17:20;;;;;;;3.90;2.00;;;;;;;27.09;49.36;101399.47;5018310;28;20045;-44
2022/09/06 09:19:45;;;;;;;5.15;2.03;;;;;;;27.19;49.82;101385.41;5021633;28;20409;-44
2022/09/06 09:22:15;;;;;;;2.67;1.75;;;;;;;27.36;48.83;101393.16;5016937;28;20025;-44
2022/09/06 09:24:41;;;;;;;5.03;1.90;;;;;;;27.55;49.37;101386.78;4995398;28;20037;-44
2022/09/06 09:27:10;;;;;;;4.67;2.20;;;;;;;27.56;47.15;101402.06;5013597;28;20025;-44
2022/09/06 09:29:53;;;;;;;2.85;2.00;;;;;;;27.69;50.48;101392.97;5010353;28;20280;-44
2022/09/06 09:32:32;;;;;;;4.93;1.85;;;;;;;28.00;50.13;101403.13;5011024;28;20029;-43
2022/09/06 09:35:18;;;;;;;4.47;1.92;;;;;;;28.25;49.11;101399.59;5015413;28;20096;-44
2022/09/06 09:37:44;;;;;;;3.17;1.88;;;;;;;28.60;47.32;101405.41;5010603;28;20076;-47
2022/09/06 09:40:22;;;;;;;6.43;2.08;;;;;;;28.69;46.81;101403.22;5027566;28;20041;-45
2022/09/06 09:42:47;;;;;;;;;;;;;;;28.98;49.12;101393.47;5022289;28;20484;-44
2022/09/06 09:45:18;;;;;;;2.53;1.95;;;;;;;29.03;46.51;101394.69;5016904;28;19929;-45
2022/09/06 09:47:44;;;;;;;2.97;1.90;;;;;;;29.07;47.85;101384.97;5008500;28;20108;-44
2022/09/06 09:50:33;;;;;;;6.93;2.35;;;;;;;29.35;47.45;101400.88;5009975;28;20391;-44
2022/09/06 09:53:16;;;;;;;3.03;2.17;;;;;;;29.41;45.94;101386.28;5012555;28;20056;-45
2022/09/06 09:55:43;;;;;;;3.90;2.00;;;;;;;29.47;42.79;101385.34;5011606;28;20380;-48
2022/09/06 09:58:38;;;;;;;3.60;2.15;;;;;;;29.65;44.89;101383.66;5010353;28;20113;-46
2022/09/06 10:01:27;;;;;;;4.47;2.33;;;;;;;29.93;45.18;101393.16;5005471;28;20084;-44
2022/09/06 10:04:01;;;;;;;3.85;2.10;;;;;;;30.00;44.79;101394.75;5012695;28;20022;-44
2022/09/06 10:06:26;;;;;;;5.28;2.20;;;;;;;30.20;42.67;101391.69;5012110;28;20053;-44
2022/09/06 10:08:53;;;;;;;5.20;2.50;;;;;;;30.26;41.15;101411.84;5009133;28;20034;-44
2022/09/06 10:11:47;;;;;;;3.88;2.20;;;;;;;30.46;43.61;101411.56;5008979;28;20025;-44
2022/09/06 10:14:21;;;;;;;3.97;2.53;;;;;;;30.52;42.72;101402.38;5011473;28;20360;-44
2022/09/06 10:16:47;;;;;;;4.93;2.45;;;;;;;30.54;40.46;101405.69;5010397;28;20065;-44
2022/09/06 10:19:22;;;;;;;6.60;2.63;;;;;;;30.69;42.21;101407.13;4999697;28;20018;-44
2022/09/06 10:21:53;;;;;;;6.88;3.08;;;;;;;30.69;40.10;101410.72;5019012;28;20047;-44
2022/09/06 10:24:49;;;;;;;4.03;2.30;;;;;;;30.85;41.85;101417.41;5022412;28;20144;-44
2022/09/06 10:27:21;;;;;;;3.65;2.28;;;;;;;30.90;40.65;101406.53;5031960;28;20491;-44
2022/09/06 10:29:57;;;;;;;4.22;2.40;;;;;;;31.07;40.89;101414.06;5018627;28;20756;-45
2022/09/06 10:32:41;;;;;;;4.15;2.25;;;;;;;31.21;42.43;101396.28;5017584;28;20102;-44
2022/09/06 10:35:22;;;;;;;5.75;2.35;;;;;;;31.34;41.08;101400.63;5018389;28;20156;-45
2022/09/06 10:38:09;;;;;;;4.63;2.92;;;;;;;31.22;39.69;101394.34;5019523;28;20088;-45
2022/09/06 10:40:59;;;;;;;7.97;3.20;;;;;;;31.36;40.08;101395.75;5020502;28;20037;-45
2022/09/06 10:43:34;;;;;;;7.22;3.13;;;;;;;31.21;39.10;101393.53;5013167;28;20483;-45
2022/09/06 10:46:10;;;;;;;6.38;3.08;;;;;;;31.30;39.14;101389.31;5004076;28;20044;-48
2022/09/06 10:48:46;;;;;;;4.80;2.92;;;;;;;31.34;39.60;101387.75;5012910;28;20091;-46
2022/09/06 10:51:24;;;;;;;6.68;2.50;;;;;;;31.44;39.74;101394.53;5028544;28;20112;-45
2022/09/06 10:53:55;;;;;;;4.25;3.03;;;;;;;31.33;38.84;101385.25;5003433;28;20030;-45
2022/09/06 10:56:45;;;;;;;6.03;2.70;;;;;;;31.45;40.31;101388.78;5003466;28;20047;-45
2022/09/06 10:59:32;;;;;;;7.60;2.80;;;;;;;31.63;39.74;101381.47;4988778;28;20097;-45
2022/09/06 11:02:24;;;;;;;5.43;2.50;;;;;;;31.93;40.29;101389.44;5006498;28;20492;-45
2022/09/06 11:04:50;;;;;;;8.07;3.15;;;;;;;31.85;38.40;101387.09;5000697;28;20108;-45
2022/09/06 11:07:32;;;;;;;3.97;2.80;;;;;;;31.78;39.73;101394.66;5005323;28;20122;-45
2022/09/06 11:10:20;;;;;;;5.45;2.58;;;;;;;31.99;38.14;101393.09;4983586;28;20076;-45
2022/09/06 11:12:52;;;;;;;6.22;2.83;;;;;;;31.89;38.42;101396.50;4982972;28;20054;-46
2022/09/06 11:15:20;;;;;;;6.00;2.92;;;;;;;32.07;37.60;101398.22;4981532;28;20034;-46
2022/09/06 11:17:54;;;;;;;6.43;2.60;;;;;;;32.20;37.18;101406.16;4982027;28;20043;-46
2022/09/06 11:20:31;;;;;;;4.93;2.70;;;;;;;32.45;37.74;101407.66;4988941;28;20034;-45
2022/09/06 11:22:56;;;;;;;6.88;2.80;;;;;;;32.56;36.19;101417.72;4997448;28;20065;-45
2022/09/06 11:25:37;;;;;;;5.60;2.80;;;;;;;32.37;36.43;101419.88;4995663;28;20108;-44
2022/09/06 11:28:09;;;;;;;7.05;3.03;;;;;;;32.36;37.24;101412.75;4999528;28;21396;-45
2022/09/06 11:30:34;;;;;;;6.18;3.10;;;;;;;32.55;36.84;101412.50;4991985;28;20030;-44
2022/09/06 11:33:23;;;;;;;6.13;2.50;;;;;;;32.76;36.87;101417.25;5008976;28;20025;-47
2022/09/06 11:35:49;;;;;;;8.35;2.50;;;;;;;32.54;37.39;101414.41;4998405;28;20019;-45
2022/09/06 11:38:17;;;;;;;4.38;2.90;;;;;;;32.59;35.71;101408.13;4992784;28;20657;-47